Time;durP1;ratioP1;P1;durP2;ratioP2;P2;SDS_P1;SDS_P2;PMS_P1;PMS_P2;Temp;Humidity;BMP_temperature;BMP_pressure;BME280_temperature;BME280_humidity;BME280_pressure;Samples;Min_cycle;Max_cycle;Signal;HPM_P1;HPM_P2
2022/03/05 00:00:25;;;;;;;4.95;1.25;;;;;;;;;;6100499;23;20010;-83
2022/03/05 00:02:52;;;;;;;3.83;1.58;;;;;;;;;;6100497;23;20009;-82
2022/03/05 00:05:18;;;;;;;5.03;1.10;;;;;;;;;;6126805;23;20041;-82
2022/03/05 00:07:45;;;;;;;5.80;0.90;;;;;;;;;;6128168;23;20002;-82
2022/03/05 00:10:11;;;;;;;11.38;1.00;;;;;;;;;;6102208;23;20033;-82
2022/03/05 00:12:38;;;;;;;3.72;0.75;;;;;;;;;;6101983;23;20029;-82
2022/03/05 00:15:05;;;;;;;1.92;0.55;;;;;;;;;;6102409;23;20005;-82
2022/03/05 00:17:31;;;;;;;3.60;0.60;;;;;;;;;;6127662;23;20060;-83
2022/03/05 00:19:57;;;;;;;3.25;0.55;;;;;;;;;;6102009;23;20002;-83
2022/03/05 00:22:24;;;;;;;3.72;0.47;;;;;;;;;;6127780;23;20006;-82
2022/03/05 00:24:50;;;;;;;2.95;0.60;;;;;;;;;;6102261;23;20009;-82
2022/03/05 00:27:20;;;;;;;4.10;0.80;;;;;;;;;;6102312;23;20032;-83
2022/03/05 00:29:46;;;;;;;6.43;0.75;;;;;;;;;;6127805;23;20018;-83
2022/03/05 00:32:12;;;;;;;2.80;0.45;;;;;;;;;;6102240;23;20006;-83
2022/03/05 00:34:38;;;;;;;2.65;0.40;;;;;;;;;;6127851;23;20017;-83
2022/03/05 00:37:05;;;;;;;2.42;0.65;;;;;;;;;;6102359;23;20002;-83
2022/03/05 00:39:32;;;;;;;4.25;1.10;;;;;;;;;;6127936;23;20077;-83
2022/03/05 00:41:58;;;;;;;2.05;0.50;;;;;;;;;;6128117;23;20080;-83
2022/03/05 00:44:25;;;;;;;1.90;0.60;;;;;;;;;;6127513;23;20002;-82
2022/03/05 00:46:51;;;;;;;2.80;0.50;;;;;;;;;;6127365;23;20017;-84
2022/03/05 00:49:17;;;;;;;3.30;0.45;;;;;;;;;;6127441;23;20002;-83
2022/03/05 00:51:43;;;;;;;4.03;1.00;;;;;;;;;;6127930;23;20060;-84
2022/03/05 00:54:10;;;;;;;2.40;0.52;;;;;;;;;;6102049;23;20006;-83
2022/03/05 00:56:36;;;;;;;6.63;1.38;;;;;;;;;;6101442;23;20009;-83
2022/03/05 00:59:02;;;;;;;4.30;1.40;;;;;;;;;;6102139;23;20102;-82
2022/03/05 01:01:28;;;;;;;5.60;0.80;;;;;;;;;;6127504;23;19998;-84
2022/03/05 01:03:55;;;;;;;1.52;0.63;;;;;;;;;;6101995;23;20413;-84
2022/03/05 01:06:21;;;;;;;4.82;0.90;;;;;;;;;;6102249;23;20010;-84
2022/03/05 01:08:47;;;;;;;3.72;1.13;;;;;;;;;;6127027;23;20013;-83
2022/03/05 01:11:16;;;;;;;5.03;0.77;;;;;;;;;;6127134;23;20081;-84
2022/03/05 01:13:43;;;;;;;3.08;0.68;;;;;;;;;;6101535;23;20065;-84
2022/03/05 01:16:09;;;;;;;3.67;0.50;;;;;;;;;;6101371;23;20069;-84
2022/03/05 01:18:35;;;;;;;4.53;0.63;;;;;;;;;;6100987;23;20002;-83
2022/03/05 01:21:02;;;;;;;1.95;0.45;;;;;;;;;;6126582;23;19998;-84
2022/03/05 01:23:28;;;;;;;6.28;0.60;;;;;;;;;;6127080;23;20002;-85
2022/03/05 01:25:54;;;;;;;2.75;0.60;;;;;;;;;;6101205;23;20009;-84
2022/03/05 01:28:20;;;;;;;4.25;0.63;;;;;;;;;;6126929;23;20425;-84
2022/03/05 01:30:47;;;;;;;1.48;0.40;;;;;;;;;;6126349;23;20756;-85
2022/03/05 01:33:17;;;;;;;3.33;0.60;;;;;;;;;;6100789;23;20010;-85
2022/03/05 01:35:48;;;;;;;3.85;0.60;;;;;;;;;;6101090;23;20049;-86
2022/03/05 01:38:15;;;;;;;3.33;1.05;;;;;;;;;;6100592;23;20002;-86
2022/03/05 01:40:42;;;;;;;6.90;1.42;;;;;;;;;;6100179;23;20325;-84
2022/03/05 01:43:08;;;;;;;9.73;1.73;;;;;;;;;;6126554;23;20008;-85
2022/03/05 01:45:34;;;;;;;7.65;1.10;;;;;;;;;;6126783;23;20325;-84
2022/03/05 01:48:01;;;;;;;3.83;1.05;;;;;;;;;;6127157;23;20029;-84
2022/03/05 01:50:28;;;;;;;3.65;1.20;;;;;;;;;;6100751;23;20024;-85
2022/03/05 01:52:55;;;;;;;6.18;1.30;;;;;;;;;;6101421;23;20002;-84
2022/03/05 01:55:21;;;;;;;6.18;1.38;;;;;;;;;;6101330;23;20002;-84
2022/03/05 01:57:48;;;;;;;3.47;1.10;;;;;;;;;;6101504;23;20096;-84
2022/03/05 02:00:15;;;;;;;7.75;1.40;;;;;;;;;;6099654;23;20009;-84
2022/03/05 02:02:45;;;;;;;6.18;1.58;;;;;;;;;;6126188;23;20009;-84
2022/03/05 02:05:12;;;;;;;5.03;1.70;;;;;;;;;;6100877;23;20481;-84
2022/03/05 02:07:38;;;;;;;9.27;2.03;;;;;;;;;;6101037;23;20695;-85
2022/03/05 02:10:05;;;;;;;5.30;1.95;;;;;;;;;;6126260;23;20018;-85
2022/03/05 02:12:32;;;;;;;8.10;2.30;;;;;;;;;;6099713;23;20013;-85
2022/03/05 02:14:59;;;;;;;9.32;2.60;;;;;;;;;;6100496;23;20285;-85
2022/03/05 02:17:27;;;;;;;11.50;3.25;;;;;;;;;;6099868;23;20081;-84
2022/03/05 02:19:54;;;;;;;13.50;4.05;;;;;;;;;;6101132;23;20010;-83
2022/03/05 02:22:20;;;;;;;12.77;4.43;;;;;;;;;;6100904;23;20057;-82
2022/03/05 02:24:48;;;;;;;13.30;4.82;;;;;;;;;;6101055;23;20006;-84
2022/03/05 02:27:14;;;;;;;10.45;4.15;;;;;;;;;;6100541;23;20025;-84
2022/03/05 02:29:41;;;;;;;13.63;3.70;;;;;;;;;;6108222;23;20022;-83
2022/03/05 02:32:07;;;;;;;11.73;3.50;;;;;;;;;;6125055;23;19998;-84
2022/03/05 02:34:33;;;;;;;7.78;3.35;;;;;;;;;;6123863;23;20006;-84
2022/03/05 02:37:00;;;;;;;11.18;3.45;;;;;;;;;;6124683;23;20026;-83
2022/03/05 02:39:26;;;;;;;8.52;2.65;;;;;;;;;;6124594;23;20029;-84
2022/03/05 02:41:53;;;;;;;8.48;2.92;;;;;;;;;;6124894;23;20008;-86
2022/03/05 02:44:20;;;;;;;9.98;3.53;;;;;;;;;;6124224;23;20006;-83
2022/03/05 02:46:46;;;;;;;10.40;3.72;;;;;;;;;;6125323;23;20049;-84
2022/03/05 02:49:13;;;;;;;9.70;3.05;;;;;;;;;;6124567;23;20436;-84
2022/03/05 02:51:39;;;;;;;8.23;3.60;;;;;;;;;;6124858;23;20055;-83
2022/03/05 02:54:05;;;;;;;7.57;2.78;;;;;;;;;;6124933;23;20009;-84
2022/03/05 02:56:32;;;;;;;10.02;3.15;;;;;;;;;;6126225;23;20073;-84
2022/03/05 02:58:58;;;;;;;22.67;4.15;;;;;;;;;;6124499;23;20025;-84
2022/03/05 03:01:24;;;;;;;11.50;3.75;;;;;;;;;;6126307;23;20025;-83
2022/03/05 03:03:51;;;;;;;15.43;4.22;;;;;;;;;;6126667;23;19998;-83
2022/03/05 03:06:19;;;;;;;13.77;2.97;;;;;;;;;;6126927;23;19998;-83
2022/03/05 03:08:46;;;;;;;12.68;2.70;;;;;;;;;;6126947;23;20002;-84
2022/03/05 03:11:12;;;;;;;12.73;3.08;;;;;;;;;;6125112;23;20006;-83
2022/03/05 03:13:38;;;;;;;8.32;2.60;;;;;;;;;;6126845;23;20302;-85
2022/03/05 03:16:05;;;;;;;11.48;2.95;;;;;;;;;;6124877;23;20006;-84
2022/03/05 03:18:31;;;;;;;17.05;3.60;;;;;;;;;;6125253;23;20002;-86
2022/03/05 03:20:57;;;;;;;9.60;2.90;;;;;;;;;;6126717;23;20009;-83
2022/03/05 03:23:23;;;;;;;11.73;3.00;;;;;;;;;;6127006;23;20002;-84
2022/03/05 03:25:50;;;;;;;8.35;2.13;;;;;;;;;;6124798;23;20002;-83
2022/03/05 03:28:16;;;;;;;8.13;2.17;;;;;;;;;;6124680;23;20464;-85
2022/03/05 03:30:42;;;;;;;12.48;2.60;;;;;;;;;;6126511;23;20010;-83
2022/03/05 03:33:09;;;;;;;11.75;2.97;;;;;;;;;;6126124;23;20014;-83
2022/03/05 03:35:35;;;;;;;30.88;4.20;;;;;;;;;;6100355;23;20037;-84
2022/03/05 03:38:01;;;;;;;23.23;4.15;;;;;;;;;;6100141;23;20009;-85
2022/03/05 03:40:28;;;;;;;11.60;2.53;;;;;;;;;;6125792;23;20006;-85
2022/03/05 03:42:54;;;;;;;19.10;3.53;;;;;;;;;;6101988;23;20432;-84
2022/03/05 03:45:20;;;;;;;17.33;3.88;;;;;;;;;;6127414;23;20006;-83
2022/03/05 03:47:48;;;;;;;16.90;3.55;;;;;;;;;;6101856;23;20041;-83
2022/03/05 03:50:16;;;;;;;16.45;4.32;;;;;;;;;;6127605;23;20010;-83
2022/03/05 03:52:42;;;;;;;14.15;4.30;;;;;;;;;;6102004;23;20009;-83
2022/03/05 03:55:10;;;;;;;25.40;3.03;;;;;;;;;;6101860;23;20033;-84
2022/03/05 03:57:37;;;;;;;6.93;2.03;;;;;;;;;;6127530;23;20005;-84
2022/03/05 04:00:05;;;;;;;14.27;2.40;;;;;;;;;;6127097;23;20477;-83
2022/03/05 04:02:31;;;;;;;20.15;2.63;;;;;;;;;;6126463;23;20029;-85
2022/03/05 04:04:58;;;;;;;13.55;2.75;;;;;;;;;;6101469;23;20006;-83
2022/03/05 04:10:11;;;;;;;12.75;2.90;;;;;;;;;;6126891;23;20068;-83
2022/03/05 04:12:38;;;;;;;14.23;4.00;;;;;;;;;;6100874;23;20006;-85
2022/03/05 04:15:05;;;;;;;13.27;3.90;;;;;;;;;;6100703;23;20414;-84
2022/03/05 04:17:31;;;;;;;12.85;3.88;;;;;;;;;;6101092;23;20006;-83
2022/03/05 04:19:58;;;;;;;23.75;6.15;;;;;;;;;;6100933;23;20325;-82
2022/03/05 04:22:24;;;;;;;22.83;6.95;;;;;;;;;;6126964;23;20006;-83
2022/03/05 04:24:50;;;;;;;28.50;5.70;;;;;;;;;;6101967;23;20006;-83
2022/03/05 04:27:17;;;;;;;28.08;7.28;;;;;;;;;;6101983;23;20041;-83
2022/03/05 04:29:43;;;;;;;29.30;7.85;;;;;;;;;;6110385;23;20097;-83
2022/03/05 04:32:09;;;;;;;29.42;7.18;;;;;;;;;;6125388;23;20373;-88
2022/03/05 04:34:35;;;;;;;44.03;10.07;;;;;;;;;;6124575;23;20497;-84
2022/03/05 04:37:02;;;;;;;39.22;11.52;;;;;;;;;;6127770;23;20002;-85
2022/03/05 04:39:28;;;;;;;52.97;10.85;;;;;;;;;;6126402;23;20009;-85
2022/03/05 04:41:54;;;;;;;52.72;13.63;;;;;;;;;;6125809;23;20081;-85
2022/03/05 04:44:21;;;;;;;27.00;8.20;;;;;;;;;;6124277;23;20060;-82
2022/03/05 04:46:47;;;;;;;24.02;7.30;;;;;;;;;;6126870;23;20372;-82
2022/03/05 04:49:13;;;;;;;21.42;6.57;;;;;;;;;;6126190;23;20080;-82
2022/03/05 04:51:39;;;;;;;28.90;7.40;;;;;;;;;;6127383;23;20002;-83
2022/03/05 04:54:06;;;;;;;25.73;7.13;;;;;;;;;;6127326;23;20091;-83
2022/03/05 04:56:32;;;;;;;25.95;5.80;;;;;;;;;;6126260;23;20037;-83
2022/03/05 04:58:58;;;;;;;16.35;3.85;;;;;;;;;;6127791;23;20010;-83
2022/03/05 05:01:25;;;;;;;20.52;2.80;;;;;;;;;;6126471;23;20425;-84
2022/03/05 05:03:51;;;;;;;31.15;3.88;;;;;;;;;;6126414;23;20002;-83
2022/03/05 05:06:17;;;;;;;13.52;2.35;;;;;;;;;;6101665;23;20029;-82
2022/03/05 05:08:43;;;;;;;14.98;1.70;;;;;;;;;;6127202;23;20010;-83
2022/03/05 05:11:10;;;;;;;9.73;1.65;;;;;;;;;;6126409;23;20160;-83
2022/03/05 05:13:38;;;;;;;8.52;1.50;;;;;;;;;;6127840;23;20077;-83
2022/03/05 05:16:05;;;;;;;11.32;1.17;;;;;;;;;;6126325;23;20065;-84
2022/03/05 05:18:33;;;;;;;10.20;1.55;;;;;;;;;;6125911;23;20017;-84
2022/03/05 05:20:59;;;;;;;17.63;2.92;;;;;;;;;;6125989;23;20002;-84
2022/03/05 05:23:25;;;;;;;16.52;3.58;;;;;;;;;;6126119;23;20006;-84
2022/03/05 05:25:52;;;;;;;23.63;3.78;;;;;;;;;;6126220;23;20006;-83
2022/03/05 05:28:18;;;;;;;18.27;3.83;;;;;;;;;;6125816;23;20006;-84
2022/03/05 05:30:44;;;;;;;14.82;3.75;;;;;;;;;;6126028;23;20013;-84
2022/03/05 05:33:11;;;;;;;11.65;2.67;;;;;;;;;;6127945;23;19998;-84
2022/03/05 05:35:37;;;;;;;12.32;2.72;;;;;;;;;;6126046;23;20012;-84
2022/03/05 05:38:03;;;;;;;12.75;2.55;;;;;;;;;;6125960;23;20504;-83
2022/03/05 05:40:30;;;;;;;13.95;4.10;;;;;;;;;;6127265;23;20302;-83
2022/03/05 05:42:56;;;;;;;13.93;3.53;;;;;;;;;;6125856;23;20002;-84
2022/03/05 05:45:22;;;;;;;20.60;5.25;;;;;;;;;;6125989;23;20002;-84
2022/03/05 05:47:48;;;;;;;22.25;4.15;;;;;;;;;;6125920;23;20006;-83
2022/03/05 05:50:15;;;;;;;15.25;4.32;;;;;;;;;;6126977;23;20061;-84
2022/03/05 05:52:41;;;;;;;22.67;3.63;;;;;;;;;;6126924;23;20002;-84
2022/03/05 05:55:07;;;;;;;15.75;2.72;;;;;;;;;;6125907;23;20084;-83
2022/03/05 05:57:34;;;;;;;13.93;2.63;;;;;;;;;;6125593;23;20333;-83
2022/03/05 06:00:00;;;;;;;11.88;2.58;;;;;;;;;;6127425;23;20522;-83
2022/03/05 06:02:26;;;;;;;13.50;2.85;;;;;;;;;;6125016;23;20490;-90
2022/03/05 06:04:53;;;;;;;9.07;2.60;;;;;;;;;;6125381;23;20006;-83
2022/03/05 06:07:19;;;;;;;14.70;3.78;;;;;;;;;;6126998;23;20002;-84
2022/03/05 06:09:45;;;;;;;13.10;3.13;;;;;;;;;;6125471;23;20037;-84
2022/03/05 06:12:12;;;;;;;12.95;3.92;;;;;;;;;;6125678;23;20087;-83
2022/03/05 06:14:38;;;;;;;16.77;3.53;;;;;;;;;;6126370;23;20013;-83
2022/03/05 06:17:04;;;;;;;14.65;3.95;;;;;;;;;;6124832;23;20320;-83
2022/03/05 06:19:30;;;;;;;14.52;3.50;;;;;;;;;;6124870;23;20028;-83
2022/03/05 06:21:57;;;;;;;14.95;4.28;;;;;;;;;;6125000;23;20057;-83
2022/03/05 06:24:23;;;;;;;15.32;4.53;;;;;;;;;;6125097;23;20002;-82
2022/03/05 06:26:49;;;;;;;16.30;4.95;;;;;;;;;;6125061;23;20005;-83
2022/03/05 06:29:15;;;;;;;16.02;4.72;;;;;;;;;;6125158;23;20030;-83
2022/03/05 06:31:42;;;;;;;12.27;3.28;;;;;;;;;;6125222;23;20333;-83
2022/03/05 06:34:08;;;;;;;13.02;3.42;;;;;;;;;;6125541;23;20006;-83
2022/03/05 06:36:34;;;;;;;13.23;3.05;;;;;;;;;;6124623;23;20058;-85
2022/03/05 06:39:01;;;;;;;12.65;3.42;;;;;;;;;;6122977;23;20012;-83
2022/03/05 06:41:27;;;;;;;17.10;3.63;;;;;;;;;;6124573;23;20002;-84
2022/03/05 06:43:53;;;;;;;12.60;2.67;;;;;;;;;;6126398;23;20057;-84
2022/03/05 06:46:19;;;;;;;22.15;3.08;;;;;;;;;;6124157;23;20333;-86
2022/03/05 06:48:46;;;;;;;10.38;2.63;;;;;;;;;;6124072;23;20006;-85
2022/03/05 06:51:13;;;;;;;11.35;3.20;;;;;;;;;;6124450;23;20013;-84
2022/03/05 06:53:39;;;;;;;14.63;2.95;;;;;;;;;;6123948;23;20002;-84
2022/03/05 06:56:06;;;;;;;11.60;2.85;;;;;;;;;;6123698;23;20012;-84
2022/03/05 06:58:32;;;;;;;13.68;3.08;;;;;;;;;;6122579;23;20025;-85
2022/03/05 07:00:58;;;;;;;19.55;4.88;;;;;;;;;;6124133;23;20365;-83
2022/03/05 07:03:24;;;;;;;16.88;5.07;;;;;;;;;;6124338;23;20010;-83
2022/03/05 07:05:51;;;;;;;24.83;4.70;;;;;;;;;;6124688;23;20010;-83
2022/03/05 07:08:17;;;;;;;22.98;5.40;;;;;;;;;;6124580;23;20484;-83
2022/03/05 07:10:43;;;;;;;24.08;5.40;;;;;;;;;;6124082;23;20313;-83
2022/03/05 07:13:10;;;;;;;31.00;6.43;;;;;;;;;;6125687;23;20403;-84
2022/03/05 07:15:36;;;;;;;17.88;5.80;;;;;;;;;;6122736;23;20061;-83
2022/03/05 07:18:02;;;;;;;21.58;6.43;;;;;;;;;;6124372;23;20029;-84
2022/03/05 07:20:28;;;;;;;15.80;4.47;;;;;;;;;;6123362;23;20005;-84
2022/03/05 07:22:55;;;;;;;15.38;4.60;;;;;;;;;;6126230;23;20002;-84
2022/03/05 07:25:21;;;;;;;15.93;4.40;;;;;;;;;;6124486;23;20053;-83
2022/03/05 07:27:47;;;;;;;10.95;2.90;;;;;;;;;;6124834;23;20007;-83
2022/03/05 07:30:13;;;;;;;9.43;2.30;;;;;;;;;;6124608;23;20326;-83
2022/03/05 07:32:40;;;;;;;8.10;2.65;;;;;;;;;;6126085;23;20026;-83
2022/03/05 07:35:06;;;;;;;9.02;3.20;;;;;;;;;;6124997;23;20002;-83
2022/03/05 07:37:33;;;;;;;7.90;2.35;;;;;;;;;;6125128;23;20028;-83
2022/03/05 07:40:01;;;;;;;7.35;2.75;;;;;;;;;;6124659;23;20137;-83
2022/03/05 07:42:27;;;;;;;11.02;3.10;;;;;;;;;;6125056;23;20012;-86
2022/03/05 07:44:54;;;;;;;11.35;2.40;;;;;;;;;;6126844;23;20010;-84
2022/03/05 07:47:20;;;;;;;8.52;2.00;;;;;;;;;;6125047;23;20006;-83
2022/03/05 07:49:46;;;;;;;7.25;2.50;;;;;;;;;;6125069;23;20006;-84
2022/03/05 07:52:12;;;;;;;11.57;2.22;;;;;;;;;;6125118;23;20006;-83
2022/03/05 07:54:39;;;;;;;11.77;3.13;;;;;;;;;;6126518;23;20414;-83
2022/03/05 07:57:05;;;;;;;14.60;3.58;;;;;;;;;;6124692;23;20333;-83
2022/03/05 07:59:31;;;;;;;15.57;3.45;;;;;;;;;;6126362;23;20073;-83
2022/03/05 08:01:58;;;;;;;17.00;3.42;;;;;;;;;;6124948;23;20085;-83
2022/03/05 08:04:24;;;;;;;12.15;2.95;;;;;;;;;;6124952;23;20452;-83
2022/03/05 08:06:50;;;;;;;14.82;3.20;;;;;;;;;;6124896;23;20009;-84
2022/03/05 08:09:16;;;;;;;10.43;2.97;;;;;;;;;;6124859;23;20043;-84
2022/03/05 08:11:43;;;;;;;10.77;3.80;;;;;;;;;;6124983;23;20011;-83
2022/03/05 08:14:09;;;;;;;19.15;5.05;;;;;;;;;;6125087;23;20009;-84
2022/03/05 08:16:35;;;;;;;17.38;4.35;;;;;;;;;;6124806;23;20009;-84
2022/03/05 08:19:01;;;;;;;20.77;6.05;;;;;;;;;;6124934;23;20012;-83
2022/03/05 08:21:28;;;;;;;24.90;6.63;;;;;;;;;;6124990;23;20006;-83
2022/03/05 08:23:55;;;;;;;16.98;4.82;;;;;;;;;;6124934;23;20006;-82
2022/03/05 08:26:22;;;;;;;16.80;2.85;;;;;;;;;;6127040;23;20034;-83
2022/03/05 08:28:48;;;;;;;12.00;2.30;;;;;;;;;;6126074;23;20017;-82
2022/03/05 08:31:14;;;;;;;12.25;2.13;;;;;;;;;;6128802;23;20520;-82
2022/03/05 08:33:41;;;;;;;13.23;2.67;;;;;;;;;;6102355;23;20006;-83
2022/03/05 08:36:07;;;;;;;14.10;2.88;;;;;;;;;;6102050;23;20006;-83
2022/03/05 08:38:34;;;;;;;13.68;3.08;;;;;;;;;;6101813;23;20010;-83
2022/03/05 08:41:01;;;;;;;11.00;3.03;;;;;;;;;;6102231;23;20025;-83
2022/03/05 08:43:28;;;;;;;13.98;2.97;;;;;;;;;;6128257;23;20002;-82
2022/03/05 08:45:54;;;;;;;15.13;3.90;;;;;;;;;;6102081;23;20012;-83
2022/03/05 08:48:21;;;;;;;13.45;4.00;;;;;;;;;;6101654;23;20026;-83
2022/03/05 08:50:47;;;;;;;15.98;4.10;;;;;;;;;;6101545;23;20302;-82
2022/03/05 08:53:13;;;;;;;13.77;3.38;;;;;;;;;;6102081;23;20005;-84
2022/03/05 08:55:39;;;;;;;11.40;2.60;;;;;;;;;;6101958;23;20006;-85
2022/03/05 08:58:06;;;;;;;14.52;3.20;;;;;;;;;;6102033;23;20009;-85
2022/03/05 09:00:32;;;;;;;20.25;3.65;;;;;;;;;;6101107;23;20096;-85
2022/03/05 09:02:59;;;;;;;9.43;2.45;;;;;;;;;;6100920;23;20083;-85
2022/03/05 09:05:25;;;;;;;13.02;2.80;;;;;;;;;;6101366;23;20006;-84
2022/03/05 09:07:51;;;;;;;21.60;3.45;;;;;;;;;;6101054;23;20034;-85
2022/03/05 09:10:18;;;;;;;11.13;3.10;;;;;;;;;;6101368;23;20041;-84
2022/03/05 09:12:44;;;;;;;14.65;2.95;;;;;;;;;;6099915;23;20357;-85
2022/03/05 09:15:12;;;;;;;17.75;4.22;;;;;;;;;;6098602;23;20017;-85
2022/03/05 09:17:39;;;;;;;15.55;4.00;;;;;;;;;;6100218;23;20373;-85
2022/03/05 09:20:05;;;;;;;18.08;3.85;;;;;;;;;;6100307;23;20426;-85
2022/03/05 09:22:33;;;;;;;16.13;4.00;;;;;;;;;;6100036;23;20002;-86
2022/03/05 09:24:59;;;;;;;17.83;3.63;;;;;;;;;;6101005;23;20006;-85
2022/03/05 09:27:26;;;;;;;13.88;3.80;;;;;;;;;;6100890;23;20002;-85
2022/03/05 09:29:52;;;;;;;17.13;3.63;;;;;;;;;;6111637;23;20401;-87
2022/03/05 09:32:18;;;;;;;12.13;3.45;;;;;;;;;;6125800;23;20002;-87
2022/03/05 09:34:45;;;;;;;9.45;2.90;;;;;;;;;;6125831;23;20495;-86
2022/03/05 09:37:11;;;;;;;13.32;2.20;;;;;;;;;;6125945;23;20429;-87
2022/03/05 09:39:37;;;;;;;15.23;3.15;;;;;;;;;;6125344;23;20010;-86
2022/03/05 09:42:07;;;;;;;11.52;2.70;;;;;;;;;;6125972;23;20089;-86
2022/03/05 09:44:34;;;;;;;13.38;3.33;;;;;;;;;;6125551;23;20229;-87
2022/03/05 09:47:01;;;;;;;16.58;3.80;;;;;;;;;;6125520;23;20006;-86
2022/03/05 09:49:28;;;;;;;13.35;3.72;;;;;;;;;;6125090;23;20429;-86
2022/03/05 09:51:55;;;;;;;17.80;3.85;;;;;;;;;;6125577;23;20012;-86
2022/03/05 09:54:21;;;;;;;12.00;4.13;;;;;;;;;;6125633;23;20002;-86
2022/03/05 09:56:47;;;;;;;14.27;4.07;;;;;;;;;;6125281;23;20017;-86
2022/03/05 09:59:14;;;;;;;13.63;4.82;;;;;;;;;;6127054;23;20014;-87
2022/03/05 10:01:40;;;;;;;17.75;5.30;;;;;;;;;;6125102;23;20013;-86
2022/03/05 10:04:18;;;;;;;17.50;5.00;;;;;;;;;;6127030;23;20418;-87
2022/03/05 10:06:44;;;;;;;11.60;3.78;;;;;;;;;;6126944;23;20069;-86
2022/03/05 10:09:31;;;;;;;15.68;3.28;;;;;;;;;;6125337;23;20101;-86
2022/03/05 10:11:57;;;;;;;102.90;42.30;;;;;;;;;;6125261;23;20497;-88
2022/03/05 10:14:23;;;;;;;87.30;39.75;;;;;;;;;;6125071;23;20006;-87
2022/03/05 10:16:50;;;;;;;90.53;39.42;;;;;;;;;;6126489;23;20317;-86
2022/03/05 10:19:20;;;;;;;81.90;36.50;;;;;;;;;;6125070;23;20318;-88
2022/03/05 10:22:05;;;;;;;78.18;33.28;;;;;;;;;;6125347;23;20009;-87
2022/03/05 10:24:32;;;;;;;69.68;30.10;;;;;;;;;;6126447;23;20006;-87
2022/03/05 10:26:58;;;;;;;67.57;26.42;;;;;;;;;;6124952;23;20002;-86
2022/03/05 10:29:26;;;;;;;51.22;21.77;;;;;;;;;;6124702;23;20026;-87
2022/03/05 10:32:12;;;;;;;51.83;23.05;;;;;;;;;;6125225;23;20005;-86
2022/03/05 10:34:53;;;;;;;62.40;20.42;;;;;;;;;;6124900;23;20002;-87
2022/03/05 10:37:20;;;;;;;49.70;20.42;;;;;;;;;;6125108;23;20010;-87
2022/03/05 10:39:47;;;;;;;49.53;19.45;;;;;;;;;;6124813;23;20006;-87
2022/03/05 10:42:24;;;;;;;35.47;13.98;;;;;;;;;;6125181;23;20081;-86
2022/03/05 10:45:01;;;;;;;33.85;14.25;;;;;;;;;;6124978;23;20002;-86
2022/03/05 10:47:36;;;;;;;36.92;13.95;;;;;;;;;;6125083;23;20085;-84
2022/03/05 10:50:27;;;;;;;41.72;15.65;;;;;;;;;;6124762;23;20021;-87
2022/03/05 10:53:00;;;;;;;41.30;16.88;;;;;;;;;;6126467;23;20321;-85
2022/03/05 10:55:27;;;;;;;52.58;17.27;;;;;;;;;;6124716;23;20727;-87
2022/03/05 10:58:01;;;;;;;52.22;19.42;;;;;;;;;;6125055;23;20156;-87
2022/03/05 11:00:29;;;;;;;39.05;16.92;;;;;;;;;;6124417;23;20654;-87
2022/03/05 11:02:56;;;;;;;39.10;14.90;;;;;;;;;;6124488;23;20002;-85
2022/03/05 11:05:23;;;;;;;37.28;14.60;;;;;;;;;;6124160;23;20133;-86
2022/03/05 11:07:49;;;;;;;40.55;15.77;;;;;;;;;;6124461;23;20006;-85
2022/03/05 11:10:17;;;;;;;43.25;15.00;;;;;;;;;;6124106;23;20433;-86
2022/03/05 11:12:51;;;;;;;31.50;13.40;;;;;;;;;;6124358;23;19998;-85
2022/03/05 11:15:18;;;;;;;40.13;15.73;;;;;;;;;;6124675;23;20085;-85
2022/03/05 11:17:45;;;;;;;46.40;16.15;;;;;;;;;;6124654;23;20038;-85
2022/03/05 11:20:12;;;;;;;56.13;20.92;;;;;;;;;;6124755;23;20006;-87
2022/03/05 11:22:38;;;;;;;57.03;23.55;;;;;;;;;;6124563;23;20009;-86
2022/03/05 11:25:05;;;;;;;53.80;23.45;;;;;;;;;;6126092;23;20002;-85
2022/03/05 11:27:31;;;;;;;60.67;24.58;;;;;;;;;;6125778;23;20441;-84
2022/03/05 11:29:58;;;;;;;52.60;21.27;;;;;;;;;;6124011;23;20026;-87
2022/03/05 11:32:38;;;;;;;61.03;23.52;;;;;;;;;;6125917;23;20053;-84
2022/03/05 11:35:24;;;;;;;57.53;23.85;;;;;;;;;;6124456;23;20085;-87
2022/03/05 11:37:50;;;;;;;48.80;20.38;;;;;;;;;;6124507;23;20389;-85
2022/03/05 11:40:32;;;;;;;45.67;18.48;;;;;;;;;;6126324;23;20413;-84
2022/03/05 11:43:18;;;;;;;43.40;17.67;;;;;;;;;;6124706;23;20006;-85
2022/03/05 11:45:49;;;;;;;37.00;13.93;;;;;;;;;;6124242;23;20061;-84
2022/03/05 11:48:24;;;;;;;42.05;16.05;;;;;;;;;;6124538;23;20372;-85
2022/03/05 11:50:51;;;;;;;45.92;17.35;;;;;;;;;;6124156;23;20041;-83
2022/03/05 11:53:17;;;;;;;35.58;15.57;;;;;;;;;;6124630;23;20006;-84
2022/03/05 11:55:45;;;;;;;42.88;20.90;;;;;;;;;;6124471;23;20006;-86
2022/03/05 11:58:14;;;;;;;48.05;20.73;;;;;;;;;;6124678;23;20009;-83
2022/03/05 12:00:52;;;;;;;49.10;19.90;;;;;;;;;;6124159;23;20380;-87
2022/03/05 12:03:42;;;;;;;47.60;21.70;;;;;;;;;;6126515;23;20006;-86
2022/03/05 12:06:10;;;;;;;52.72;21.20;;;;;;;;;;6126670;23;20002;-85
2022/03/05 12:08:36;;;;;;;51.05;21.02;;;;;;;;;;6127679;23;20401;-87
2022/03/05 12:11:10;;;;;;;60.30;24.30;;;;;;;;;;6125927;23;20013;-86
2022/03/05 12:13:46;;;;;;;52.75;22.40;;;;;;;;;;6125711;23;20002;-87
2022/03/05 12:16:25;;;;;;;48.47;24.38;;;;;;;;;;6126208;23;20002;-86
2022/03/05 12:18:51;;;;;;;60.08;25.80;;;;;;;;;;6125668;23;20433;-85
2022/03/05 12:21:30;;;;;;;59.00;27.55;;;;;;;;;;6127828;23;20069;-87
2022/03/05 12:24:09;;;;;;;58.28;23.10;;;;;;;;;;6125630;23;20340;-84
2022/03/05 12:26:37;;;;;;;50.63;21.30;;;;;;;;;;6125705;23;20013;-85
2022/03/05 12:29:05;;;;;;;51.70;21.75;;;;;;;;;;6125411;23;20030;-86
2022/03/05 12:31:31;;;;;;;42.53;19.17;;;;;;;;;;6126504;23;20006;-87
2022/03/05 12:33:58;;;;;;;45.80;19.15;;;;;;;;;;6128265;23;20052;-86
2022/03/05 12:36:24;;;;;;;52.13;24.48;;;;;;;;;;6126252;23;20006;-87
2022/03/05 12:38:57;;;;;;;61.50;27.50;;;;;;;;;;6126848;23;20063;-86
2022/03/05 12:41:27;;;;;;;56.17;24.42;;;;;;;;;;6126098;23;20437;-86
2022/03/05 12:43:54;;;;;;;51.75;19.92;;;;;;;;;;6127339;23;20005;-87
2022/03/05 12:46:20;;;;;;;37.05;15.73;;;;;;;;;;6126268;23;20006;-86
2022/03/05 12:48:46;;;;;;;33.60;15.30;;;;;;;;;;6126081;23;20033;-86
2022/03/05 12:51:13;;;;;;;33.90;15.73;;;;;;;;;;6125842;23;20421;-85
2022/03/05 12:53:41;;;;;;;43.50;15.00;;;;;;;;;;6127731;23;20012;-87
2022/03/05 12:56:08;;;;;;;44.15;17.88;;;;;;;;;;6126174;23;20369;-85
2022/03/05 12:58:36;;;;;;;41.25;18.52;;;;;;;;;;6126024;23;20132;-86
2022/03/05 13:01:04;;;;;;;38.65;18.40;;;;;;;;;;6126010;23;20002;-85
2022/03/05 13:03:31;;;;;;;47.70;20.38;;;;;;;;;;6125914;23;20009;-87
2022/03/05 13:05:58;;;;;;;47.70;19.42;;;;;;;;;;6126102;23;20370;-86
2022/03/05 13:08:27;;;;;;;43.92;20.98;;;;;;;;;;6125917;23;20006;-85
2022/03/05 13:11:07;;;;;;;47.05;25.45;;;;;;;;;;6125946;23;20014;-86
2022/03/05 13:13:35;;;;;;;50.90;24.95;;;;;;;;;;6125564;23;20429;-87
2022/03/05 13:16:02;;;;;;;45.70;22.35;;;;;;;;;;6125694;23;20460;-86
2022/03/05 13:18:28;;;;;;;45.90;20.25;;;;;;;;;;6125004;23;20492;-88
2022/03/05 13:20:59;;;;;;;38.53;17.90;;;;;;;;;;6125191;23;20008;-87
2022/03/05 13:23:26;;;;;;;47.22;17.55;;;;;;;;;;6125340;23;20056;-89
2022/03/05 13:25:52;;;;;;;42.13;18.38;;;;;;;;;;6125503;23;20006;-85
2022/03/05 13:28:22;;;;;;;46.42;18.95;;;;;;;;;;6124885;23;20068;-86
2022/03/05 13:30:50;;;;;;;47.30;18.75;;;;;;;;;;6124527;23;20018;-86
2022/03/05 13:33:35;;;;;;;43.17;16.70;;;;;;;;;;6125824;23;20085;-86
2022/03/05 13:36:11;;;;;;;41.00;18.05;;;;;;;;;;6127403;23;20002;-87
2022/03/05 13:38:37;;;;;;;49.03;19.77;;;;;;;;;;6124918;23;20088;-88
2022/03/05 13:41:04;;;;;;;40.95;18.35;;;;;;;;;;6125870;23;20006;-85
2022/03/05 13:43:34;;;;;;;44.70;19.40;;;;;;;;;;6125716;23;20012;-86
2022/03/05 13:46:01;;;;;;;34.63;18.25;;;;;;;;;;6127159;23;20042;-86
2022/03/05 13:48:27;;;;;;;46.53;19.30;;;;;;;;;;6125970;23;20006;-87
2022/03/05 13:50:54;;;;;;;40.83;16.05;;;;;;;;;;6125230;23;20013;-88
2022/03/05 13:53:21;;;;;;;38.30;14.77;;;;;;;;;;6125831;23;20089;-87
2022/03/05 13:56:02;;;;;;;29.38;14.82;;;;;;;;;;6125809;23;20057;-88
2022/03/05 13:58:31;;;;;;;42.42;15.98;;;;;;;;;;6125854;23;20002;-88
2022/03/05 14:00:57;;;;;;;43.80;19.75;;;;;;;;;;6126024;23;20002;-87
2022/03/05 14:03:23;;;;;;;59.58;21.23;;;;;;;;;;6125381;23;20018;-86
2022/03/05 14:05:50;;;;;;;41.97;17.27;;;;;;;;;;6125663;23;20013;-88
2022/03/05 14:08:16;;;;;;;35.72;16.17;;;;;;;;;;6125550;23;20383;-87
2022/03/05 14:10:42;;;;;;;43.17;16.67;;;;;;;;;;6125123;23;20014;-87
2022/03/05 14:13:24;;;;;;;32.88;16.55;;;;;;;;;;6125511;23;20006;-86
2022/03/05 14:15:50;;;;;;;42.33;16.80;;;;;;;;;;6125398;23;20029;-87
2022/03/05 14:18:16;;;;;;;42.05;18.38;;;;;;;;;;6125219;23;20417;-87
2022/03/05 14:20:44;;;;;;;42.42;18.65;;;;;;;;;;6124993;23;20421;-88
2022/03/05 14:23:16;;;;;;;42.78;20.52;;;;;;;;;;6125406;23;20009;-88
2022/03/05 14:25:45;;;;;;;49.90;22.23;;;;;;;;;;6124933;23;20085;-88
2022/03/05 14:28:16;;;;;;;46.90;24.02;;;;;;;;;;6125467;23;20033;-88
2022/03/05 14:30:43;;;;;;;53.05;24.00;;;;;;;;;;6124817;23;20323;-86
2022/03/05 14:33:10;;;;;;;53.83;24.58;;;;;;;;;;6124418;23;20382;-88